OICS  Sanandaj  Airport

Iran

Add Bookmark
ICAO OICS
IATA SDG
Type Airport
Status Operational
Latitude
35° 14' 45" N
35.245899
Longitude
47° 0' 33" E
47.009201
Local (GMT +4.5 ) UTC
May 25, 2016 01:40 pm May 25, 2016 09:10
Sunrise-Sunset Local UTC
Begin Civil Twilight 05:40 am 01:10
Sunrise 06:09 am 01:39
Sunset 08:28 pm 15:58
End Civil Twilight 08:57 pm 16:27
VFR
VFR
MVFR
MVFR
IFR
IFR
LIFR
LIFR
Unknown
Unavailable

Current Weather

METAR Observed VFR
OICS 250800Z 19008KT 9000 FEW040 22/03 Q1013 Wed, May 25, 2016 @ 08:00 UTC
(1 Hour, 10 Minutes ago)
Visual Flight Rules
Wind Visibility Clouds Conditions
190° at 8 knots (15 kph) 8,996 m
  • Few at 4,000 ft AGL
  • No significant weather
Temperatures Readings Precipitation
Current Temp
22°C
72°F
Dewpoint
3°C
37°F
Humidity 29%
Altimeter 29.91" Hg
Sea Level Pressure 1,013 mb
Field Elevation
1,373 m
4,505 ft
None Recorded
-
-

CheckWX.com is intended as a tool to help pilots better visualize weather data. It is not intended as a substitute for an official weather briefing obtained from a Flight Service Station. CheckWX.com does not meet the FAA requirements for an official pre-flight weather briefing. Therefore, it's important that pilots still call and obtain an official FSS pre-flight weather briefing.

© 2007-2016 CheckWX.com
09:10:51 UTC